Cocoa, FL

7:23 PM EST on March 05, 2015 (GMT -0500)
Rockledge Golf | Change Station
CLOSE
Current Station
Personal Weather Station
Location: Rockledge, FL
Elevation: 39 ft
Nearby Weather Stations

Elev 39 ft 28.34 °N, 80.75 °W | Updated 13 minutes ago

Clear
Clear
76.6 °F
Feels Like 78 °F
N
0.0
Wind Variable Wind from South

Today
High -- | Low -- °F
--% Chance of Precip.
Yesterday
High -- | Low -- °F
Precip. -- in
6:43 AM 6:25 PM
Full, 100% visible
Pressure 30.09 in
Visibility 7.0 miles
Clouds Scattered Clouds 10000 ft
Heat Index 78 °F
Dew Point 69 °F
Humidity 78%
Rainfall in
Snow Depth Not available.
UV 0 out of 12
Pollen 11.00 out of 12
Air Quality Not available.
Flu Activity Not available.
METAR KTIX 052355Z 25005KT 7SM SCT100 26/18 A3009

More Conditions Fewer Conditions

Pressure 30.09 in
Visibility 7.0 miles
Clouds Scattered Clouds 10000 ft
Heat Index 78 °F
Dew Point 69 °F
Humidity 78%
Rainfall in
Snow Depth Not available.
UV 0 out of 12
Pollen 11.00 out of 12
Air Quality Not available.
Flu Activity Not available.
METAR KTIX 052355Z 25005KT 7SM SCT100 26/18 A3009

More Conditions Fewer Conditions

Nowcast | as of 7:03 PM EST on March 5, 2015

Through this evening...a thin line of showers will make its approach upon east central Florida from the northwest...arriving in lake and Volusia counties later this evening. Until then...clouds will be on the increase from that direction as the associated cool front draws nearer. There will be a 20-30 percent chance for showers as the system moves through. Little in the way of lightning is expected. The front will reach the Treasure Coast during the overnight period after midnight. Additional details...including graphics are available online at: http://www.Srh.NOAA.Gov/mlb/blog.Php

×

10-Day Weather Forecast

Almanac

Astronomy

Mar. 05, 2015 Rise Set
Actual Time
Civil Twilight
Nautical Twilight
Astronomical Twilight
Moon
Length of Visible Light
Length of Day
Tomorrow will be .
, % of the Moon is Illuminated

Today's Extremes

State Highs State Lows

Community

WunderPhotos

Upload Photos

1,803,070 photos uploaded!

WunderBlogs® & News

Nearby

Air Quality

  Air Quality AQ Index Pollutant
Not available.

Snow Depth

Station Depth Elevation

Earthquake Activity

City Distance Mag. Time & Date
Minimum magnitude displayed is 2.5.

Coastal Water Temperatures

Place Temperature

Nearby Weather Stations